Time;durP1;ratioP1;P1;durP2;ratioP2;P2;SDS_P1;SDS_P2;PMS_P1;PMS_P2;Temp;Humidity;BMP_temperature;BMP_pressure;BME280_temperature;BME280_humidity;BME280_pressure;Samples;Min_cycle;Max_cycle;Signal;HPM_P1;HPM_P2
2021/06/22 00:00:54;;;;;;;2.37;1.93;;;;;;;19.61;83.60;100005.81;5054292;28;20338;-79
2021/06/22 00:03:21;;;;;;;2.83;1.63;;;;;;;19.53;84.07;100000.28;5058515;28;20304;-80
2021/06/22 00:05:48;;;;;;;2.90;1.70;;;;;;;19.50;84.37;99990.75;5053654;28;20207;-78
2021/06/22 00:08:14;;;;;;;2.10;1.90;;;;;;;19.46;83.45;99998.06;5057395;28;20738;-78
2021/06/22 00:10:41;;;;;;;2.77;1.70;;;;;;;19.45;81.42;100003.47;5053454;28;20293;-79
2021/06/22 00:13:07;;;;;;;3.03;2.10;;;;;;;19.40;79.50;100008.25;5057361;28;20221;-80
2021/06/22 00:15:34;;;;;;;2.77;2.13;;;;;;;19.44;80.61;100012.38;5057272;28;20198;-79
2021/06/22 00:18:00;;;;;;;4.70;1.77;;;;;;;19.44;78.40;100020.31;5052817;28;20218;-78
2021/06/22 00:20:28;;;;;;;2.03;1.83;;;;;;;19.42;79.43;100027.50;5051470;28;20226;-79
2021/06/22 00:22:55;;;;;;;2.67;1.90;;;;;;;19.37;77.84;100042.84;5051095;28;20202;-79
2021/06/22 00:25:23;;;;;;;4.10;1.90;;;;;;;19.39;78.14;100033.84;5054451;28;20461;-78
2021/06/22 00:27:51;;;;;;;4.20;1.83;;;;;;;19.40;76.13;100029.38;5053283;28;20208;-78
2021/06/22 00:30:18;;;;;;;1.70;1.60;;;;;;;19.41;76.86;100031.09;5054958;28;20225;-79
2021/06/22 00:32:45;;;;;;;3.83;1.73;;;;;;;19.43;77.35;100026.53;5040792;28;20215;-79
2021/06/22 00:35:13;;;;;;;3.30;2.10;;;;;;;19.41;77.47;100026.63;5047979;28;20209;-79
2021/06/22 00:37:43;;;;;;;1.73;1.63;;;;;;;19.38;75.88;100024.22;5050751;28;20680;-78
2021/06/22 00:40:10;;;;;;;4.03;1.90;;;;;;;19.38;76.15;100034.78;5051308;28;20293;-79
2021/06/22 00:42:40;;;;;;;4.90;1.90;;;;;;;19.43;75.20;100045.03;5050363;28;20685;-79
2021/06/22 00:45:08;;;;;;;3.10;1.90;;;;;;;19.45;75.79;100056.34;5035817;28;20279;-79
2021/06/22 00:47:34;;;;;;;3.80;2.00;;;;;;;19.48;76.01;100066.69;5052374;28;20195;-79
2021/06/22 00:50:04;;;;;;;2.87;2.40;;;;;;;19.43;77.21;100058.25;5036963;28;20332;-79
2021/06/22 00:52:32;;;;;;;4.93;2.20;;;;;;;19.43;76.69;100059.09;5036050;28;20288;-78
2021/06/22 00:55:00;;;;;;;3.17;1.77;;;;;;;19.43;77.15;100061.72;5054209;28;21340;-79
2021/06/22 00:57:27;;;;;;;2.40;2.20;;;;;;;19.36;77.78;100072.88;5052704;28;20227;-78
2021/06/22 00:59:54;;;;;;;2.57;2.20;;;;;;;19.35;77.97;100068.53;5035469;28;20311;-78
2021/06/22 01:02:21;;;;;;;2.37;2.17;;;;;;;19.29;77.83;100073.31;5051978;28;20283;-80
2021/06/22 01:04:48;;;;;;;4.03;2.20;;;;;;;19.26;78.10;100076.16;5039450;28;20688;-79
2021/06/22 01:07:32;;;;;;;2.93;2.20;;;;;;;19.23;79.40;100076.38;5031227;28;20218;-79
2021/06/22 01:10:01;;;;;;;2.93;2.30;;;;;;;19.17;80.20;100070.69;5039458;28;20213;-80
2021/06/22 01:12:28;;;;;;;3.13;2.67;;;;;;;19.14;80.55;100082.31;5056761;28;20258;-79
2021/06/22 01:14:54;;;;;;;4.63;2.60;;;;;;;19.13;80.82;100077.16;5053689;28;20199;-78
2021/06/22 01:17:21;;;;;;;4.67;2.50;;;;;;;19.14;81.31;100076.19;5036599;28;20233;-78
2021/06/22 01:19:48;;;;;;;3.10;2.80;;;;;;;19.11;82.39;100085.19;5055178;28;20211;-80
2021/06/22 01:22:15;;;;;;;3.17;2.87;;;;;;;19.06;82.40;100088.13;5050741;28;20309;-79
2021/06/22 01:24:45;;;;;;;4.07;3.13;;;;;;;19.05;83.31;100082.94;5054129;28;20219;-78
2021/06/22 01:27:15;;;;;;;4.03;3.10;;;;;;;19.03;83.27;100091.00;5051108;28;20211;-79
2021/06/22 01:29:42;;;;;;;4.87;3.20;;;;;;;19.05;84.46;100088.22;5055660;28;20209;-78
2021/06/22 01:32:08;;;;;;;4.60;3.20;;;;;;;19.03;84.99;100084.84;5051273;28;20417;-78
2021/06/22 01:34:41;;;;;;;3.77;3.30;;;;;;;19.04;85.28;100095.31;5054764;28;20871;-78
2021/06/22 01:37:09;;;;;;;3.60;3.27;;;;;;;18.99;85.62;100086.88;5033654;28;20329;-79
2021/06/22 01:39:51;;;;;;;4.90;3.17;;;;;;;18.96;85.87;100089.75;5057841;28;20566;-78
2021/06/22 01:42:18;;;;;;;3.90;3.17;;;;;;;18.96;87.23;100091.53;5035840;28;20230;-79
2021/06/22 01:44:47;;;;;;;4.53;3.90;;;;;;;18.91;87.73;100092.69;5056521;28;20618;-79
2021/06/22 01:47:15;;;;;;;4.27;3.67;;;;;;;18.86;87.41;100100.09;5040206;28;20722;-79
2021/06/22 01:49:42;;;;;;;5.20;3.87;;;;;;;18.82;87.80;100103.03;5055734;28;20558;-78
2021/06/22 01:52:08;;;;;;;7.20;3.97;;;;;;;18.79;87.99;100109.38;5040144;28;20253;-78
2021/06/22 01:54:38;;;;;;;4.13;3.40;;;;;;;18.80;89.03;100118.94;5056276;28;20278;-79
2021/06/22 01:57:08;;;;;;;4.50;3.83;;;;;;;18.78;88.86;100123.50;5034566;28;20300;-80
2021/06/22 01:59:40;;;;;;;5.57;3.87;;;;;;;18.77;89.09;100131.53;5036831;28;20230;-78
2021/06/22 02:02:15;;;;;;;5.93;4.10;;;;;;;18.74;89.46;100143.16;5054123;28;20233;-78
2021/06/22 02:05:00;;;;;;;5.57;4.23;;;;;;;18.73;89.75;100142.31;5046341;28;20583;-79
2021/06/22 02:07:26;;;;;;;5.73;4.20;;;;;;;18.73;89.74;100149.38;5057599;28;20198;-78
2021/06/22 02:10:10;;;;;;;4.27;3.87;;;;;;;18.74;89.80;100156.34;5040196;28;20272;-79
2021/06/22 02:13:00;;;;;;;4.73;4.20;;;;;;;18.75;90.17;100166.00;5054353;28;20314;-79
2021/06/22 02:15:27;;;;;;;4.80;3.93;;;;;;;18.76;90.61;100167.66;5055571;28;20293;-80
2021/06/22 02:17:54;;;;;;;6.40;4.10;;;;;;;18.76;90.69;100169.47;5053353;28;20289;-79
2021/06/22 02:20:21;;;;;;;4.83;4.13;;;;;;;18.74;90.78;100174.84;5056850;28;20250;-78
2021/06/22 02:22:47;;;;;;;5.10;4.07;;;;;;;18.73;90.73;100186.34;5056093;28;20202;-79
2021/06/22 02:25:17;;;;;;;5.43;4.43;;;;;;;18.76;91.62;100180.88;5049346;28;20222;-79
2021/06/22 02:27:44;;;;;;;5.30;4.20;;;;;;;18.74;91.64;100188.88;5056384;28;20198;-79
2021/06/22 02:30:15;;;;;;;7.33;4.17;;;;;;;18.76;91.72;100188.78;5053607;28;20210;-79
2021/06/22 02:32:42;;;;;;;5.07;3.93;;;;;;;18.74;91.74;100201.25;5056037;28;20530;-79
2021/06/22 02:35:14;;;;;;;6.37;4.00;;;;;;;18.76;91.21;100195.88;5056342;28;20202;-79
2021/06/22 02:37:44;;;;;;;5.43;4.07;;;;;;;18.76;91.47;100191.44;5039314;28;20206;-79
2021/06/22 02:40:12;;;;;;;4.60;3.80;;;;;;;18.77;91.36;100193.13;5056469;28;20207;-79
2021/06/22 02:42:39;;;;;;;4.30;3.77;;;;;;;18.81;91.34;100185.84;5057246;28;20313;-79
2021/06/22 02:45:15;;;;;;;4.73;4.10;;;;;;;18.74;90.85;100185.41;5055086;28;20717;-79
2021/06/22 02:47:42;;;;;;;5.83;4.10;;;;;;;18.74;91.28;100186.25;5056770;28;20707;-78
2021/06/22 02:50:10;;;;;;;5.13;4.33;;;;;;;18.73;90.73;100192.50;5040750;28;20282;-79
2021/06/22 02:52:40;;;;;;;6.10;4.17;;;;;;;18.74;90.99;100194.16;5043035;28;20206;-78
2021/06/22 02:55:17;;;;;;;5.13;4.63;;;;;;;18.75;91.20;100197.69;5039464;28;20203;-79
2021/06/22 02:57:49;;;;;;;5.00;4.50;;;;;;;18.74;90.63;100199.44;5033772;28;20199;-79
2021/06/22 03:00:19;;;;;;;4.63;3.70;;;;;;;18.80;91.03;100199.97;5040431;28;20646;-78
2021/06/22 03:02:46;;;;;;;4.63;4.10;;;;;;;18.84;91.41;100206.81;5035289;28;20745;-79
2021/06/22 03:05:14;;;;;;;7.60;4.67;;;;;;;18.88;90.71;100214.41;5040476;28;20223;-78
2021/06/22 03:07:44;;;;;;;5.00;4.43;;;;;;;18.90;90.51;100212.50;5037535;28;20215;-78
2021/06/22 03:10:13;;;;;;;4.63;4.00;;;;;;;18.92;90.04;100209.75;5038251;28;20621;-79
2021/06/22 03:12:40;;;;;;;5.73;4.27;;;;;;;18.94;90.36;100212.28;5056709;28;20202;-80
2021/06/22 03:15:40;;;;;;;4.33;3.90;;;;;;;18.97;90.47;100207.66;5050703;28;20210;-80
2021/06/22 03:18:07;;;;;;;5.03;4.53;;;;;;;18.96;89.66;100211.25;5062726;28;20305;-78
2021/06/22 03:20:39;;;;;;;4.80;4.30;;;;;;;19.03;89.70;100215.19;5039435;28;20317;-80
2021/06/22 03:23:11;;;;;;;4.77;4.27;;;;;;;19.10;90.33;100220.84;5057218;28;20202;-78
2021/06/22 03:25:38;;;;;;;5.00;4.40;;;;;;;19.04;89.80;100218.66;5052171;28;20227;-78
2021/06/22 03:28:05;;;;;;;5.07;4.10;;;;;;;19.09;89.93;100220.03;5054454;28;20229;-79
2021/06/22 03:30:49;;;;;;;6.30;4.57;;;;;;;19.11;89.72;100228.69;5033576;28;20226;-78
2021/06/22 03:33:17;;;;;;;4.80;4.30;;;;;;;19.11;89.72;100228.69;5056910;28;20211;-79
2021/06/22 03:35:43;;;;;;;5.93;4.57;;;;;;;19.11;90.29;100231.31;5058892;28;20195;-78
2021/06/22 03:38:10;;;;;;;5.93;4.53;;;;;;;19.10;89.42;100232.28;5056866;28;20243;-78
2021/06/22 03:40:37;;;;;;;6.80;4.43;;;;;;;19.13;90.12;100230.38;5056955;28;20402;-79
2021/06/22 03:43:05;;;;;;;6.03;4.60;;;;;;;19.14;89.68;100229.41;5040935;28;20212;-78
2021/06/22 03:45:36;;;;;;;5.63;5.00;;;;;;;19.14;90.21;100235.56;5038969;28;20222;-78
2021/06/22 03:48:07;;;;;;;6.13;4.50;;;;;;;19.16;90.08;100236.31;5039088;28;20249;-79
2021/06/22 03:50:38;;;;;;;5.70;4.77;;;;;;;19.16;90.38;100233.66;5052924;28;20317;-78
2021/06/22 03:53:04;;;;;;;5.20;4.70;;;;;;;19.18;89.86;100237.03;5034140;28;20300;-79
2021/06/22 03:55:31;;;;;;;7.60;4.80;;;;;;;19.24;90.13;100246.34;5038932;28;20190;-79
2021/06/22 03:58:06;;;;;;;5.23;4.67;;;;;;;19.23;89.96;100237.59;5034384;28;20206;-80
2021/06/22 04:00:58;;;;;;;5.60;4.70;;;;;;;19.17;90.09;100227.44;5038442;28;20287;-79
2021/06/22 04:03:34;;;;;;;5.53;5.03;;;;;;;19.22;90.69;100229.75;5055700;28;20424;-79
2021/06/22 04:06:13;;;;;;;6.20;4.83;;;;;;;19.21;90.20;100215.69;5034590;28;20801;-80
2021/06/22 04:08:41;;;;;;;6.03;5.30;;;;;;;19.14;90.56;100203.88;5037847;28;20996;-79
2021/06/22 04:11:14;;;;;;;6.30;5.40;;;;;;;19.14;91.10;100192.44;5052043;28;20534;-79
2021/06/22 04:13:41;;;;;;;7.17;6.00;;;;;;;19.11;91.23;100194.34;5054456;28;20206;-79
2021/06/22 04:16:09;;;;;;;7.87;5.03;;;;;;;19.16;90.93;100199.31;5056374;28;20194;-80
2021/06/22 04:18:38;;;;;;;8.20;6.50;;;;;;;19.14;90.82;100209.16;5033329;28;21002;-79
2021/06/22 04:21:09;;;;;;;7.03;5.73;;;;;;;19.14;91.55;100216.22;5036689;28;20223;-79
2021/06/22 04:23:44;;;;;;;7.43;5.40;;;;;;;19.15;91.23;100231.97;5039205;28;20202;-79
2021/06/22 04:26:12;;;;;;;8.97;6.27;;;;;;;19.18;91.61;100241.50;5034154;28;20326;-79
2021/06/22 04:28:38;;;;;;;6.87;5.77;;;;;;;19.16;91.49;100262.72;5055295;28;20352;-78
2021/06/22 04:31:05;;;;;;;10.00;5.80;;;;;;;19.16;91.34;100259.25;5057606;28;20279;-80
2021/06/22 04:33:31;;;;;;;9.03;6.73;;;;;;;19.16;91.14;100270.66;5053249;28;20195;-79
2021/06/22 04:35:59;;;;;;;7.33;6.13;;;;;;;19.11;91.45;100276.25;5056754;28;20656;-79
2021/06/22 04:38:25;;;;;;;6.77;6.03;;;;;;;19.11;91.61;100273.59;5053189;28;20199;-79
2021/06/22 04:40:52;;;;;;;7.00;5.90;;;;;;;19.16;91.64;100281.22;5054646;28;20334;-79
2021/06/22 04:43:18;;;;;;;8.63;5.90;;;;;;;19.13;91.67;100285.88;5054022;28;20190;-78
2021/06/22 04:45:45;;;;;;;8.20;6.67;;;;;;;19.09;91.38;100285.25;5054706;28;20295;-80
2021/06/22 04:48:11;;;;;;;10.43;6.20;;;;;;;19.15;91.43;100287.44;5058575;28;20216;-79
2021/06/22 04:50:38;;;;;;;7.03;6.20;;;;;;;19.13;91.47;100283.22;5061181;28;20762;-78
2021/06/22 04:53:06;;;;;;;8.47;6.57;;;;;;;19.16;91.55;100288.31;5055554;28;20285;-79
2021/06/22 04:55:32;;;;;;;7.20;6.40;;;;;;;19.15;90.69;100294.53;5055223;28;20203;-78
2021/06/22 04:58:00;;;;;;;7.63;6.77;;;;;;;19.17;90.30;100298.78;5037708;28;20203;-78
2021/06/22 05:00:28;;;;;;;10.97;6.17;;;;;;;19.17;90.39;100309.38;5053890;28;20506;-80
2021/06/22 05:02:54;;;;;;;8.60;6.30;;;;;;;19.14;90.71;100320.13;5051233;28;20226;-79
2021/06/22 05:05:21;;;;;;;8.33;6.40;;;;;;;19.16;90.21;100320.03;5053849;28;20220;-79
2021/06/22 05:07:47;;;;;;;8.43;6.23;;;;;;;19.17;90.59;100321.69;5052658;28;20202;-79
2021/06/22 05:10:15;;;;;;;10.17;6.77;;;;;;;19.15;90.12;100332.38;5056521;28;20289;-78
2021/06/22 05:12:43;;;;;;;8.53;6.90;;;;;;;19.13;90.07;100346.66;5053909;28;20227;-79
2021/06/22 05:15:10;;;;;;;9.23;7.13;;;;;;;19.06;90.37;100349.69;5049880;28;20732;-78
2021/06/22 05:17:38;;;;;;;8.70;6.97;;;;;;;19.04;90.24;100354.22;5050435;28;20648;-79
2021/06/22 05:20:05;;;;;;;9.97;7.23;;;;;;;19.04;90.43;100358.66;5052938;28;20215;-79
2021/06/22 05:22:32;;;;;;;10.63;7.43;;;;;;;19.07;91.14;100361.13;5053624;28;20307;-78
2021/06/22 05:24:59;;;;;;;8.43;6.90;;;;;;;19.07;90.86;100361.97;5058640;28;20696;-80
2021/06/22 05:27:27;;;;;;;10.53;7.43;;;;;;;19.05;91.02;100363.84;5058623;28;20610;-79
2021/06/22 05:29:53;;;;;;;10.77;8.07;;;;;;;19.02;91.64;100361.41;5054050;28;20298;-79
2021/06/22 05:32:20;;;;;;;10.97;7.97;;;;;;;19.06;93.53;100362.88;5055090;28;20223;-78
2021/06/22 05:34:46;;;;;;;13.77;8.77;;;;;;;18.92;93.87;100350.59;5055984;28;20207;-78
2021/06/22 05:37:12;;;;;;;9.20;7.67;;;;;;;18.85;96.16;100340.53;5060299;28;20207;-78
2021/06/22 05:39:39;;;;;;;11.77;8.23;;;;;;;18.76;96.25;100338.47;5061128;28;20242;-79
2021/06/22 05:42:06;;;;;;;11.20;8.80;;;;;;;18.70;98.30;100340.56;5059565;28;20230;-78
2021/06/22 05:44:34;;;;;;;10.97;8.57;;;;;;;18.65;99.70;100337.38;5057755;28;20207;-78
2021/06/22 05:47:00;;;;;;;11.63;8.83;;;;;;;18.66;99.89;100349.63;5062967;28;20257;-78
2021/06/22 05:49:27;;;;;;;13.27;8.80;;;;;;;18.60;99.86;100359.72;5042253;28;20718;-79
2021/06/22 05:51:53;;;;;;;12.17;9.07;;;;;;;18.54;100.00;100363.63;5060877;28;20226;-77
2021/06/22 05:54:20;;;;;;;14.07;9.20;;;;;;;18.51;100.00;100358.53;5058654;28;20336;-79
2021/06/22 05:56:47;;;;;;;14.20;9.83;;;;;;;18.48;100.00;100350.78;5064500;28;20199;-78
2021/06/22 05:59:13;;;;;;;11.73;9.17;;;;;;;18.45;100.00;100346.56;5058350;28;20234;-79
2021/06/22 06:01:41;;;;;;;14.43;9.67;;;;;;;18.38;100.00;100345.25;5055532;28;20222;-77
2021/06/22 06:04:07;;;;;;;13.30;9.73;;;;;;;18.27;100.00;100334.53;5063507;28;20491;-79
2021/06/22 06:06:34;;;;;;;13.07;10.03;;;;;;;18.22;100.00;100323.41;5061578;28;20330;-78
2021/06/22 06:09:00;;;;;;;12.07;9.80;;;;;;;18.23;100.00;100322.47;5060650;28;20214;-79
2021/06/22 06:11:26;;;;;;;12.50;9.80;;;;;;;18.20;100.00;100322.66;5063656;28;20225;-77
2021/06/22 06:13:53;;;;;;;16.93;10.83;;;;;;;18.23;100.00;100331.22;5063050;28;20268;-78
2021/06/22 06:16:20;;;;;;;13.17;9.90;;;;;;;18.22;100.00;100336.59;5065865;28;20197;-78
2021/06/22 06:18:48;;;;;;;15.30;11.03;;;;;;;18.21;100.00;100341.03;5062692;28;20199;-78
2021/06/22 06:21:15;;;;;;;16.97;11.70;;;;;;;18.22;100.00;100347.16;5064789;28;20242;-78
2021/06/22 06:23:43;;;;;;;16.23;11.37;;;;;;;18.22;100.00;100347.16;5063705;28;20202;-79
2021/06/22 06:26:13;;;;;;;17.93;11.47;;;;;;;18.14;100.00;100352.91;5064649;28;20227;-78
2021/06/22 06:28:43;;;;;;;17.60;11.17;;;;;;;18.22;100.00;100358.53;5061167;28;20233;-77
2021/06/22 06:31:10;;;;;;;15.30;11.10;;;;;;;18.16;100.00;100357.13;5058146;28;20249;-78
2021/06/22 06:33:36;;;;;;;17.63;11.43;;;;;;;18.22;100.00;100348.00;5063603;28;20221;-77
2021/06/22 06:36:04;;;;;;;20.67;11.73;;;;;;;18.17;100.00;100358.84;5061535;28;20561;-78
2021/06/22 06:38:30;;;;;;;15.27;10.53;;;;;;;18.19;100.00;100353.47;5063197;28;20202;-78
2021/06/22 06:40:57;;;;;;;19.23;11.40;;;;;;;18.23;100.00;100356.78;5064892;28;20264;-78
2021/06/22 06:43:24;;;;;;;17.50;11.00;;;;;;;18.19;100.00;100353.47;5061288;28;20217;-78
2021/06/22 06:45:50;;;;;;;16.10;11.20;;;;;;;18.13;100.00;100359.13;5054212;28;20227;-78
2021/06/22 06:48:16;;;;;;;17.80;11.13;;;;;;;18.15;100.00;100357.22;5062286;28;20205;-78
2021/06/22 06:50:43;;;;;;;17.03;10.57;;;;;;;18.25;100.00;100363.63;5062577;28;20230;-77
2021/06/22 06:53:11;;;;;;;14.53;9.90;;;;;;;18.20;100.00;100365.72;5058610;28;20213;-77
2021/06/22 06:55:42;;;;;;;16.17;9.83;;;;;;;18.27;100.00;100355.63;5059895;28;20207;-77
2021/06/22 06:58:09;;;;;;;14.03;9.87;;;;;;;18.27;100.00;100364.38;5059125;28;20210;-77
2021/06/22 07:00:37;;;;;;;16.53;9.13;;;;;;;18.27;100.00;100360.91;5044750;28;20234;-77
2021/06/22 07:03:05;;;;;;;11.87;9.20;;;;;;;18.32;100.00;100367.59;5057751;28;20893;-78
2021/06/22 07:05:32;;;;;;;16.50;9.10;;;;;;;18.35;100.00;100372.69;5054641;28;20207;-77
2021/06/22 07:07:59;;;;;;;13.53;9.07;;;;;;;18.31;100.00;100362.41;5061810;28;20217;-77
2021/06/22 07:10:27;;;;;;;13.30;8.83;;;;;;;18.37;100.00;100358.56;5058624;28;20584;-77
2021/06/22 07:12:55;;;;;;;13.07;9.33;;;;;;;18.41;100.00;100362.69;5057140;28;20290;-78
2021/06/22 07:15:22;;;;;;;13.37;8.83;;;;;;;18.44;100.00;100365.13;5057648;28;20580;-77
2021/06/22 07:17:48;;;;;;;15.80;9.90;;;;;;;18.26;100.00;100370.63;5040422;28;20199;-77
2021/06/22 07:20:16;;;;;;;15.10;9.30;;;;;;;18.25;100.00;100376.00;5056795;28;20201;-78
2021/06/22 07:22:43;;;;;;;15.03;8.57;;;;;;;18.25;100.00;100383.91;5035479;28;20202;-78
2021/06/22 07:25:10;;;;;;;14.63;8.93;;;;;;;18.25;100.00;100378.63;5060923;28;20217;-78
2021/06/22 07:27:38;;;;;;;18.63;9.80;;;;;;;18.26;100.00;100367.16;5057337;28;20698;-77
2021/06/22 07:30:05;;;;;;;14.97;9.67;;;;;;;18.24;100.00;100369.00;5056358;28;20293;-78
2021/06/22 07:32:32;;;;;;;15.50;9.80;;;;;;;18.21;100.00;100369.22;5055867;28;20313;-79
2021/06/22 07:34:58;;;;;;;15.53;9.27;;;;;;;18.15;100.00;100367.78;5059780;28;21931;-77
2021/06/22 07:37:25;;;;;;;14.37;8.70;;;;;;;18.16;100.00;100361.59;5057938;28;20203;-78
2021/06/22 07:39:51;;;;;;;14.20;9.43;;;;;;;18.28;100.00;100367.91;5055566;28;20203;-77
2021/06/22 07:42:17;;;;;;;12.77;9.80;;;;;;;18.26;100.00;100368.00;5059733;28;20229;-77
2021/06/22 07:44:45;;;;;;;16.13;9.47;;;;;;;18.23;100.00;100372.59;5059324;28;20203;-78
2021/06/22 07:47:11;;;;;;;14.73;10.17;;;;;;;18.21;100.00;100377.97;5054882;28;20713;-78
2021/06/22 07:49:38;;;;;;;15.63;10.70;;;;;;;18.22;100.00;100370.91;5050555;28;20295;-77
2021/06/22 07:52:06;;;;;;;13.80;9.47;;;;;;;18.25;100.00;100376.84;5055860;28;20900;-77
2021/06/22 07:54:32;;;;;;;15.43;10.60;;;;;;;18.16;100.00;100380.06;5055593;28;20441;-77
2021/06/22 07:56:58;;;;;;;17.13;11.67;;;;;;;18.21;100.00;100385.88;5059055;28;20234;-79
2021/06/22 07:59:25;;;;;;;20.10;11.93;;;;;;;18.17;100.00;100379.97;5054583;28;20207;-78
2021/06/22 08:01:53;;;;;;;17.47;11.03;;;;;;;18.26;100.00;100385.63;5055697;28;20710;-78
2021/06/22 08:04:20;;;;;;;18.40;11.20;;;;;;;18.25;100.00;100382.09;5055878;28;22471;-78
2021/06/22 08:06:47;;;;;;;17.73;10.53;;;;;;;18.19;100.00;100379.88;5055871;28;20235;-78
2021/06/22 08:09:13;;;;;;;16.13;10.83;;;;;;;18.38;100.00;100378.72;5057390;28;20198;-78
2021/06/22 08:11:40;;;;;;;19.03;11.03;;;;;;;18.37;100.00;100377.88;5058655;28;20226;-77
2021/06/22 08:14:06;;;;;;;15.07;9.80;;;;;;;18.38;100.00;100384.84;5054022;28;20622;-78
2021/06/22 08:16:32;;;;;;;14.43;10.83;;;;;;;18.33;100.00;100390.41;5058124;28;20222;-79
2021/06/22 08:19:00;;;;;;;14.60;10.10;;;;;;;18.38;100.00;100386.63;5056170;28;20551;-78
2021/06/22 08:21:27;;;;;;;16.63;9.83;;;;;;;18.43;100.00;100392.47;5053489;28;20306;-79
2021/06/22 08:23:53;;;;;;;14.07;10.23;;;;;;;18.50;100.00;100399.06;5056218;28;20206;-78
2021/06/22 08:26:19;;;;;;;14.50;10.70;;;;;;;18.55;100.00;100415.44;5052612;28;20327;-78
2021/06/22 08:28:46;;;;;;;17.10;10.83;;;;;;;18.58;100.00;100414.44;5042453;28;20406;-78
2021/06/22 08:31:12;;;;;;;16.70;10.50;;;;;;;18.54;100.00;100426.97;5037635;28;20229;-78
2021/06/22 08:33:39;;;;;;;14.33;9.63;;;;;;;18.65;100.00;100429.78;5056135;28;20763;-78
2021/06/22 08:36:07;;;;;;;13.87;10.13;;;;;;;18.61;100.00;100444.13;5055526;28;20195;-78
2021/06/22 08:38:33;;;;;;;14.23;9.93;;;;;;;18.67;100.00;100449.00;5058214;28;20210;-78
2021/06/22 08:41:00;;;;;;;13.37;9.07;;;;;;;18.75;100.00;100451.19;5055387;28;20226;-78
2021/06/22 08:43:26;;;;;;;15.67;10.63;;;;;;;18.70;100.00;100456.75;5055560;28;20281;-78
2021/06/22 08:45:53;;;;;;;20.30;10.50;;;;;;;18.73;100.00;100458.31;5047573;28;20638;-78
2021/06/22 08:48:19;;;;;;;14.70;9.77;;;;;;;18.72;100.00;100456.66;5054822;28;20223;-78
2021/06/22 08:50:47;;;;;;;12.83;9.83;;;;;;;18.69;100.00;100465.59;5053313;28;20230;-78
2021/06/22 08:53:15;;;;;;;15.73;10.77;;;;;;;18.82;100.00;100467.50;5051639;28;20207;-78
2021/06/22 08:55:43;;;;;;;12.70;10.00;;;;;;;18.82;100.00;100465.72;5054189;28;20207;-78
2021/06/22 08:58:11;;;;;;;17.50;9.83;;;;;;;18.79;99.49;100475.59;5054249;28;20432;-78
2021/06/22 09:00:39;;;;;;;13.57;9.67;;;;;;;18.93;100.00;100480.88;5053209;28;20308;-78
2021/06/22 09:03:12;;;;;;;13.80;9.90;;;;;;;18.90;100.00;100481.06;5053360;28;20207;-78
2021/06/22 09:05:39;;;;;;;12.73;10.27;;;;;;;18.95;100.00;100480.78;5050983;28;20203;-78
2021/06/22 09:08:16;;;;;;;14.43;9.80;;;;;;;19.09;100.00;100489.53;5055283;28;20233;-78
2021/06/22 09:10:43;;;;;;;15.40;10.27;;;;;;;19.13;100.00;100491.97;5053399;28;20314;-78
2021/06/22 09:13:15;;;;;;;13.53;10.47;;;;;;;19.04;99.63;100499.53;5034492;28;20210;-77
2021/06/22 09:15:43;;;;;;;16.70;10.97;;;;;;;18.97;100.00;100503.50;5059977;28;20220;-78
2021/06/22 09:18:27;;;;;;;16.20;10.10;;;;;;;18.96;100.00;100507.13;5057865;28;20269;-78
2021/06/22 09:20:55;;;;;;;14.30;10.10;;;;;;;18.88;100.00;100506.75;5059360;28;20607;-78
2021/06/22 09:23:23;;;;;;;13.20;10.10;;;;;;;18.74;99.58;100504.94;5056747;28;20207;-78
2021/06/22 09:25:54;;;;;;;11.23;10.00;;;;;;;18.81;100.00;100510.69;5053606;28;20210;-78
2021/06/22 09:28:25;;;;;;;12.13;9.47;;;;;;;18.71;100.00;100508.63;5057165;28;20219;-78
2021/06/22 09:30:54;;;;;;;13.03;10.07;;;;;;;18.64;100.00;100517.00;5057703;28;20218;-79
2021/06/22 09:33:26;;;;;;;13.23;9.50;;;;;;;18.55;99.60;100521.06;5058199;28;20275;-78
2021/06/22 09:36:04;;;;;;;15.30;9.23;;;;;;;18.44;99.96;100518.22;5050581;28;20203;-78
2021/06/22 09:38:34;;;;;;;16.73;10.20;;;;;;;18.42;100.00;100526.25;5057544;28;20198;-78
2021/06/22 09:41:17;;;;;;;12.10;9.23;;;;;;;18.39;100.00;100520.28;5054701;28;20218;-79
2021/06/22 09:43:46;;;;;;;14.53;9.13;;;;;;;18.43;100.00;100519.16;5055190;28;20261;-78
2021/06/22 09:46:14;;;;;;;11.17;8.87;;;;;;;18.47;100.00;100520.69;5054150;28;20330;-78
2021/06/22 09:48:47;;;;;;;12.53;8.93;;;;;;;18.43;99.61;100508.59;5061532;28;20234;-78
2021/06/22 09:51:14;;;;;;;10.30;7.70;;;;;;;18.44;100.00;100511.16;5030312;28;20685;-78
2021/06/22 09:53:40;;;;;;;12.93;8.73;;;;;;;18.40;99.25;100511.41;5049080;28;20192;-78
2021/06/22 09:56:21;;;;;;;12.10;8.20;;;;;;;18.33;99.56;100503.88;5054788;28;20305;-78
2021/06/22 09:58:47;;;;;;;9.87;7.83;;;;;;;18.42;100.00;100506.91;5052690;28;20198;-77
2021/06/22 10:01:31;;;;;;;10.70;7.30;;;;;;;18.33;98.88;100505.69;5054942;28;20593;-78
2021/06/22 10:04:19;;;;;;;10.80;6.87;;;;;;;18.22;99.84;100493.13;5063855;28;20692;-77
2021/06/22 10:06:53;;;;;;;10.77;6.57;;;;;;;18.15;100.00;100491.78;5039447;28;20725;-78
2021/06/22 10:09:21;;;;;;;9.97;6.37;;;;;;;18.05;100.00;100495.94;5061329;28;20935;-78
2021/06/22 10:11:56;;;;;;;7.10;5.97;;;;;;;17.94;100.00;100494.78;5054975;28;20225;-78
2021/06/22 10:14:28;;;;;;;12.70;5.87;;;;;;;17.89;100.00;100488.94;5049356;28;20280;-78
2021/06/22 10:16:56;;;;;;;7.63;6.50;;;;;;;17.82;100.00;100492.84;5058270;28;20282;-78
2021/06/22 10:19:24;;;;;;;8.37;6.50;;;;;;;17.87;100.00;100492.56;5054890;28;20198;-79
2021/06/22 10:21:52;;;;;;;7.97;6.47;;;;;;;17.94;100.00;100496.53;5058472;28;20226;-79
2021/06/22 10:24:19;;;;;;;8.30;6.23;;;;;;;17.99;100.00;100489.22;5059890;28;20249;-78
2021/06/22 10:26:47;;;;;;;8.00;5.83;;;;;;;17.98;100.00;100488.38;5058094;28;20743;-78
2021/06/22 10:29:17;;;;;;;8.20;5.97;;;;;;;18.04;100.00;100483.69;5056751;28;20244;-78
2021/06/22 10:31:43;;;;;;;8.13;5.70;;;;;;;18.09;100.00;100486.91;5054331;28;20217;-78
2021/06/22 10:34:10;;;;;;;8.93;5.80;;;;;;;18.19;100.00;100492.44;5059804;28;20216;-78
2021/06/22 10:36:41;;;;;;;7.43;5.37;;;;;;;18.19;100.00;100495.09;5057455;28;20213;-78
2021/06/22 10:39:13;;;;;;;9.17;6.50;;;;;;;18.31;100.00;100497.00;5054751;28;20203;-78
2021/06/22 10:41:44;;;;;;;8.33;5.90;;;;;;;18.35;99.52;100501.16;5059464;28;20248;-79
2021/06/22 10:44:36;;;;;;;6.23;5.50;;;;;;;18.34;99.10;100510.84;5056378;28;20205;-79
2021/06/22 10:47:24;;;;;;;7.20;5.03;;;;;;;18.32;99.06;100514.53;5055416;28;20211;-78
2021/06/22 10:50:16;;;;;;;7.13;4.93;;;;;;;18.34;98.36;100517.94;5055863;28;20310;-78
2021/06/22 10:53:01;;;;;;;7.97;5.60;;;;;;;18.38;99.44;100521.22;5055042;28;20199;-78
2021/06/22 10:56:04;;;;;;;9.27;5.13;;;;;;;18.35;98.53;100515.19;5061307;28;20203;-78
2021/06/22 10:58:30;;;;;;;6.17;5.00;;;;;;;18.42;98.25;100522.75;5058639;28;20564;-78
2021/06/22 11:01:18;;;;;;;6.90;5.00;;;;;;;18.34;96.74;100534.59;5056069;28;20313;-78
2021/06/22 11:03:45;;;;;;;7.67;4.83;;;;;;;18.37;97.99;100535.38;5056362;28;20210;-78
2021/06/22 11:06:29;;;;;;;6.73;4.77;;;;;;;18.32;96.12;100539.13;5059543;28;20206;-78
2021/06/22 11:09:17;;;;;;;6.40;4.97;;;;;;;18.28;97.13;100536.78;5055445;28;20218;-79
2021/06/22 11:11:44;;;;;;;5.47;4.70;;;;;;;18.28;96.77;100536.78;5058014;28;20305;-78
2021/06/22 11:14:12;;;;;;;6.03;4.50;;;;;;;18.28;97.01;100547.34;5047101;28;20625;-79
2021/06/22 11:16:40;;;;;;;7.93;5.30;;;;;;;18.34;97.50;100539.88;5059989;28;20210;-78
2021/06/22 11:19:09;;;;;;;5.70;4.80;;;;;;;18.39;96.50;100544.06;5060701;28;20206;-78
2021/06/22 11:21:38;;;;;;;6.93;4.77;;;;;;;18.39;96.32;100542.25;5059247;28;20314;-79
2021/06/22 11:24:07;;;;;;;5.80;4.63;;;;;;;18.28;95.30;100549.97;5056623;28;20207;-78
2021/06/22 11:27:04;;;;;;;5.67;4.57;;;;;;;18.22;94.48;100550.31;5058824;28;20215;-78